Aeroporto :







RITROVATECI SU...

 
LOGIN :

Iscrizione | Disclaimer

   EN    FR    IT 

 









Sommario :    VFR   VFR Marginale   IFR   IFR Intensivo   IFR Molto Intensivo
Visibilità : 
Base nubi : 
>= 8 km
>= 3000ft
5 / 8 km
1000 / 3000 ft
1500m / 5 km
500 / 1000 ft
800 / 1500m
200 / 500 ft
< 800m
< 200 ft
Simboli :   Temporali  Nebbia  Neve Forte  Precipitazioni Forti  Vento > 20 kt







- Altitudine del aeroporto : 11 ft


KGHG - Marshfield Municipal George Harlow Field

ULTIMO METAR :
  • 250415Z AUTO 05010KT 10SM BKN022 19/15 A3029 RMK AO2

METARs OBSOLETI :
  • 250355Z AUTO 05011KT 10SM FEW021 19/15 A3028 RMK AO2
  • 250335Z AUTO 06010KT 10SM CLR 19/15 A3028 RMK AO2
  • 250315Z AUTO 05008KT 10SM CLR 20/15 A3028 RMK AO2
  • 250255Z AUTO 06009KT 10SM CLR 20/14 A3028 RMK AO2
  • 250235Z AUTO 06008G14KT 10SM CLR 20/15 A3028 RMK AO2
  • 250215Z AUTO 06008KT 10SM CLR 20/15 A3028 RMK AO2
  • 250155Z AUTO 06007KT 10SM CLR 20/14 A3027 RMK AO2
  • 250135Z AUTO VRB05KT 10SM CLR 20/15 A3027 RMK AO2

TAF N/A
Nessun NOTAM noto per questo aeroporto.



MetMap, La meteo Aeronautica in un colpo d'occhio ! - Copyright ORBIFLY Dicembre 2007 - Disclaimer

ORBIFLY MET'MAP TEAM :

Programmazione e sviluppo : Alexandra Zaïnal
Concezione e sviluppo : Baudouin d'Aumeries
Co-Programmazione e sviluppo : Marc-Olivier Méhu
Supporto tecnico e logistico : Manuel Goepfert
Aiuto per la traduzione : Arnaldo La Scala

Contatto : metmap@orbifly.com




FONTI E CREDITI :

   NOAA